createdAt,value
2022-11-28T00:01:16.978Z,55.45
2022-11-28T00:06:21.348Z,41.88
2022-11-28T00:11:27.902Z,43.55
2022-11-28T00:16:33.437Z,37.72
2022-11-28T00:21:39.906Z,35.72
2022-11-28T00:26:45.464Z,34.40
2022-11-28T00:31:49.361Z,35.05
2022-11-28T00:36:53.429Z,33.17
2022-11-28T00:41:58.761Z,32.13
2022-11-28T00:47:02.745Z,30.92
2022-11-28T00:52:06.923Z,30.48
2022-11-28T00:57:12.186Z,29.98
2022-11-28T01:02:16.709Z,30.38
2022-11-28T01:07:20.812Z,28.92
2022-11-28T01:12:26.178Z,29.67
2022-11-28T01:17:30.081Z,30.92
2022-11-28T01:22:34.130Z,32.55
2022-11-28T01:27:39.472Z,32.55
2022-11-28T01:32:46.226Z,32.90
2022-11-28T01:37:52.178Z,35.75
2022-11-28T01:42:57.561Z,35.03
2022-11-28T01:48:04.549Z,42.22
2022-11-28T01:53:11.813Z,41.92
2022-11-28T01:58:17.737Z,43.10
2022-11-28T02:08:36.457Z,44.72
2022-11-28T02:13:52.433Z,42.03
2022-11-28T02:19:10.667Z,42.03
2022-11-28T02:24:56.377Z,41.25
2022-11-28T02:30:18.812Z,40.58
2022-11-28T02:35:29.515Z,37.53
2022-11-28T02:40:39.854Z,32.63
2022-11-28T02:45:51.790Z,29.90
2022-11-28T02:51:03.451Z,29.67
2022-11-28T02:56:11.080Z,24.52
2022-11-28T03:01:20.854Z,28.77
2022-11-28T03:06:39.080Z,27.48
2022-11-28T03:11:51.625Z,28.35
2022-11-28T03:17:06.676Z,28.50
2022-11-28T03:22:22.358Z,27.17
2022-11-28T03:27:34.277Z,25.45
2022-11-28T03:32:40.978Z,24.20
2022-11-28T03:37:51.132Z,22.70
2022-11-28T03:43:00.162Z,19.25
2022-11-28T03:48:09.971Z,19.40
2022-11-28T03:53:20.648Z,18.27
2022-11-28T03:58:29.624Z,20.17
2022-11-28T04:03:47.570Z,22.25
2022-11-28T04:08:59.932Z,21.67
2022-11-28T04:14:11.517Z,21.05
2022-11-28T04:19:23.622Z,21.33
2022-11-28T04:24:33.878Z,22.15
2022-11-28T04:29:44.183Z,20.33
2022-11-28T04:34:55.958Z,19.10
2022-11-28T04:40:02.226Z,17.42
2022-11-28T04:45:13.007Z,16.80
2022-11-28T04:50:17.182Z,15.82
2022-11-28T04:55:30.298Z,18.13
2022-11-28T05:00:36.968Z,17.38
2022-11-28T05:05:47.402Z,19.55
2022-11-28T05:10:53.069Z,18.85
2022-11-28T05:15:57.123Z,17.70
2022-11-28T05:21:01.640Z,17.05
2022-11-28T05:26:08.721Z,17.48
2022-11-28T05:31:14.932Z,17.23
2022-11-28T05:36:19.489Z,24.53
2022-11-28T05:41:26.664Z,26.70
2022-11-28T05:46:31.235Z,25.63
2022-11-28T05:51:35.315Z,32.38
2022-11-28T05:56:42.510Z,31.20
2022-11-28T06:01:47.000Z,28.95
2022-11-28T06:06:52.096Z,28.20
2022-11-28T06:11:57.363Z,25.10
2022-11-28T06:17:01.316Z,35.78
2022-11-28T06:22:06.116Z,23.50
2022-11-28T06:27:11.493Z,21.20
2022-11-28T06:32:21.703Z,19.88
2022-11-28T06:37:26.267Z,19.88
2022-11-28T06:42:31.657Z,20.40
2022-11-28T06:47:35.531Z,19.80
2022-11-28T06:52:39.531Z,20.95
2022-11-28T06:57:45.364Z,19.60
2022-11-28T07:07:56.036Z,28.13
2022-11-28T07:13:05.599Z,22.33
2022-11-28T07:18:12.792Z,20.75
2022-11-28T07:23:16.734Z,18.00
2022-11-28T07:28:23.503Z,19.42
2022-11-28T07:33:27.630Z,21.17
2022-11-28T07:38:31.970Z,22.40
2022-11-28T07:43:44.566Z,22.05
2022-11-28T07:48:49.753Z,22.80
2022-11-28T07:53:54.105Z,22.17
2022-11-28T07:59:03.338Z,19.77
2022-11-28T08:04:09.112Z,18.45
2022-11-28T08:09:13.153Z,18.25
2022-11-28T08:14:18.649Z,18.15
2022-11-28T08:19:24.652Z,17.83
2022-11-28T08:24:28.637Z,14.73
2022-11-28T08:29:33.781Z,15.00
2022-11-28T08:34:40.864Z,15.38
2022-11-28T08:39:44.800Z,17.02
2022-11-28T08:44:50.115Z,18.30
2022-11-28T08:49:53.862Z,16.43
2022-11-28T08:54:57.672Z,15.57
2022-11-28T09:00:03.447Z,13.32
2022-11-28T09:10:12.053Z,12.40
2022-11-28T09:15:17.936Z,14.75
2022-11-28T09:25:25.655Z,10.80
2022-11-28T09:30:30.835Z,11.10
2022-11-28T09:35:34.815Z,12.20
2022-11-28T09:40:42.190Z,13.18
2022-11-28T09:45:52.225Z,12.35
2022-11-28T09:50:59.781Z,11.82
2022-11-28T09:56:10.625Z,11.43
2022-11-28T10:01:22.627Z,10.18
2022-11-28T10:06:32.308Z,11.18
2022-11-28T10:11:47.805Z,11.63
2022-11-28T10:16:59.879Z,9.57
2022-11-28T10:22:08.613Z,8.70
2022-11-28T10:27:14.762Z,9.13
2022-11-28T10:32:25.737Z,8.57
2022-11-28T10:37:32.139Z,7.90
2022-11-28T10:42:45.188Z,8.05
2022-11-28T10:48:38.668Z,8.85
2022-11-28T10:53:45.187Z,8.10
2022-11-28T10:58:56.500Z,9.20
2022-11-28T11:04:02.042Z,7.68
2022-11-28T11:09:06.025Z,8.13
2022-11-28T11:14:12.444Z,7.57
2022-11-28T11:19:26.753Z,7.13
2022-11-28T11:24:31.090Z,7.53
2022-11-28T11:29:36.660Z,9.43
2022-11-28T11:34:46.805Z,7.78
2022-11-28T11:39:52.224Z,6.15
2022-11-28T11:50:06.970Z,6.40
2022-11-28T11:55:16.313Z,6.43
2022-11-28T12:00:22.623Z,6.93
2022-11-28T12:05:46.709Z,6.90
2022-11-28T12:11:06.495Z,6.97
2022-11-28T12:16:25.869Z,5.28
2022-11-28T12:21:41.731Z,5.50
2022-11-28T12:26:49.053Z,6.80
2022-11-28T12:32:01.638Z,6.28
2022-11-28T12:37:16.885Z,6.30
2022-11-28T12:42:30.671Z,6.37
2022-11-28T12:47:42.432Z,6.93
2022-11-28T12:52:57.300Z,6.55
2022-11-28T12:58:11.602Z,6.53
2022-11-28T13:03:29.866Z,6.13
2022-11-28T13:08:50.300Z,5.70
2022-11-28T13:13:58.628Z,6.32
2022-11-28T13:19:10.561Z,12.68
2022-11-28T13:24:24.738Z,9.88
2022-11-28T13:29:37.176Z,7.25
2022-11-28T13:34:41.459Z,6.63
2022-11-28T13:39:53.973Z,7.15
2022-11-28T13:45:01.906Z,7.22
2022-11-28T13:50:35.068Z,7.18
2022-11-28T13:55:44.817Z,7.10
2022-11-28T14:01:06.190Z,7.38
2022-11-28T14:06:10.416Z,7.32
2022-11-28T14:11:49.776Z,6.65
2022-11-28T14:17:09.758Z,7.35
2022-11-28T14:22:29.989Z,7.78
2022-11-28T14:27:39.752Z,9.25
2022-11-28T14:32:45.424Z,9.05
2022-11-28T14:37:53.040Z,11.47
2022-11-28T14:43:29.689Z,10.82
2022-11-28T14:48:33.902Z,11.27
2022-11-28T14:53:50.075Z,10.63
2022-11-28T15:04:13.818Z,10.45
2022-11-28T15:09:28.753Z,9.13
2022-11-28T15:14:35.579Z,12.23
2022-11-28T15:19:44.567Z,12.32
2022-11-28T15:24:53.544Z,13.45
2022-11-28T15:30:00.650Z,12.65
2022-11-28T15:35:12.459Z,15.48
2022-11-28T15:40:23.135Z,13.50
2022-11-28T15:45:31.433Z,14.77
2022-11-28T15:50:36.017Z,13.73
2022-11-28T15:55:40.246Z,14.63
2022-11-28T16:00:50.463Z,12.87
2022-11-28T16:05:58.286Z,13.48
2022-11-28T16:11:05.640Z,14.32
2022-11-28T16:16:14.100Z,15.52
2022-11-28T16:21:18.315Z,16.73
2022-11-28T16:26:25.912Z,15.48
2022-11-28T16:31:32.013Z,15.25
2022-11-28T16:36:38.734Z,14.43
2022-11-28T16:41:52.005Z,14.50
2022-11-28T16:46:59.218Z,14.95
2022-11-28T16:52:37.250Z,15.48
2022-11-28T16:57:46.997Z,15.80
2022-11-28T17:02:54.104Z,16.58
2022-11-28T17:08:01.584Z,18.67
2022-11-28T17:13:05.906Z,16.95
2022-11-28T17:18:16.486Z,17.60
2022-11-28T17:23:25.351Z,23.40
2022-11-28T17:28:29.388Z,22.42
2022-11-28T17:33:34.828Z,18.60
2022-11-28T17:38:38.822Z,21.33
2022-11-28T17:43:43.050Z,19.95
2022-11-28T17:48:48.357Z,19.25
2022-11-28T17:53:52.628Z,18.00
2022-11-28T17:58:56.589Z,18.85
2022-11-28T18:04:02.016Z,17.02
2022-11-28T18:09:11.851Z,19.20
2022-11-28T18:14:20.041Z,19.50
2022-11-28T18:19:26.434Z,18.92
2022-11-28T18:24:30.610Z,17.80
2022-11-28T18:29:35.025Z,17.00
2022-11-28T18:34:41.161Z,19.53
2022-11-28T18:44:52.157Z,19.30
2022-11-28T18:49:57.712Z,20.02
2022-11-28T19:00:08.820Z,20.33
2022-11-28T19:05:14.024Z,19.35
2022-11-28T19:10:18.842Z,22.35
2022-11-28T19:15:23.628Z,20.73
2022-11-28T19:20:29.094Z,20.48
2022-11-28T19:25:35.386Z,19.45
2022-11-28T19:30:39.459Z,20.58
2022-11-28T19:35:45.319Z,24.25
2022-11-28T19:45:56.733Z,26.17
2022-11-28T19:51:03.602Z,30.30
2022-11-28T19:56:10.379Z,31.42
2022-11-28T20:01:16.400Z,31.50
2022-11-28T20:06:26.721Z,28.63
2022-11-28T20:11:33.576Z,35.05
2022-11-28T20:16:38.452Z,42.00
2022-11-28T20:21:44.089Z,36.03
2022-11-28T20:26:49.547Z,31.08
2022-11-28T20:31:55.120Z,35.08
2022-11-28T20:37:03.445Z,28.73
2022-11-28T20:42:08.023Z,41.50
2022-11-28T20:47:12.189Z,35.47
2022-11-28T20:52:17.762Z,90.93
2022-11-28T20:57:22.581Z,73.80
2022-11-28T21:02:26.900Z,38.28
2022-11-28T21:07:33.159Z,39.30
2022-11-28T21:12:37.442Z,59.08
2022-11-28T21:17:41.716Z,47.17
2022-11-28T21:22:47.788Z,55.65
2022-11-28T21:27:51.820Z,86.03
2022-11-28T21:32:56.524Z,39.50
2022-11-28T21:38:02.004Z,38.75
2022-11-28T21:43:06.051Z,38.17
2022-11-28T21:48:10.120Z,37.88
2022-11-28T21:53:16.854Z,37.20
2022-11-28T21:58:26.746Z,43.08
2022-11-28T22:03:32.088Z,42.03
2022-11-28T22:08:37.337Z,42.00
2022-11-28T22:13:42.930Z,38.05
2022-11-28T22:18:47.635Z,40.47
2022-11-28T22:23:52.890Z,45.08
2022-11-28T22:28:58.788Z,47.47
2022-11-28T22:34:03.661Z,61.85
2022-11-28T22:39:10.210Z,54.50
2022-11-28T22:44:14.837Z,50.03
2022-11-28T22:49:19.186Z,37.45
2022-11-28T22:54:25.665Z,37.47
2022-11-28T22:59:33.700Z,32.78
2022-11-28T23:04:38.509Z,37.15
2022-11-28T23:09:43.938Z,36.70
2022-11-28T23:14:51.604Z,34.33
2022-11-28T23:19:56.026Z,34.33
2022-11-28T23:25:01.546Z,33.28
2022-11-28T23:30:07.977Z,31.92
2022-11-28T23:40:18.402Z,29.65
2022-11-28T23:45:23.005Z,31.33
2022-11-28T23:50:27.514Z,32.75
2022-11-28T23:55:34.660Z,37.10
